Time;durP1;ratioP1;P1;durP2;ratioP2;P2;SDS_P1;SDS_P2;PMS_P1;PMS_P2;Temp;Humidity;BMP_temperature;BMP_pressure;BME280_temperature;BME280_humidity;BME280_pressure;Samples;Min_cycle;Max_cycle;Signal;HPM_P1;HPM_P2
2022/05/23 00:01:47;;;;;;;6.53;3.13;;;13.70;99.90;;;;;;5065740;28;20045;-87
2022/05/23 00:04:13;;;;;;;6.00;2.90;;;13.60;99.90;;;;;;5016476;28;20063;-86
2022/05/23 00:06:39;;;;;;;4.97;2.97;;;13.70;99.90;;;;;;5063029;28;20051;-87
2022/05/23 00:09:04;;;;;;;5.90;2.90;;;13.60;99.90;;;;;;5046738;28;20053;-86
2022/05/23 00:11:30;;;;;;;6.10;3.40;;;13.60;99.90;;;;;;5031710;28;20139;-85
2022/05/23 00:13:56;;;;;;;4.00;2.97;;;13.70;99.90;;;;;;5050494;28;20044;-86
2022/05/23 00:16:26;;;;;;;6.57;3.58;;;13.70;99.90;;;;;;5065925;28;20056;-87
2022/05/23 00:18:51;;;;;;;5.53;3.30;;;13.80;99.90;;;;;;5016430;28;20060;-86
2022/05/23 00:21:17;;;;;;;6.72;3.50;;;13.70;99.90;;;;;;5016649;28;20052;-85
2022/05/23 00:23:43;;;;;;;8.20;3.38;;;13.60;99.90;;;;;;5033072;28;20037;-86
2022/05/23 00:26:11;;;;;;;7.82;3.58;;;13.60;99.90;;;;;;5033138;28;20052;-86
2022/05/23 00:28:38;;;;;;;3.78;3.08;;;13.50;99.90;;;;;;5032815;28;20049;-86
2022/05/23 00:31:08;;;;;;;5.35;3.00;;;13.50;99.90;;;;;;5032602;28;20045;-86
2022/05/23 00:36:18;;;;;;;6.20;3.00;;;13.40;99.90;;;;;;5029753;28;20457;-86
2022/05/23 00:38:44;;;;;;;4.00;3.10;;;13.30;99.90;;;;;;5047955;28;20095;-86
2022/05/23 00:44:12;;;;;;;5.50;3.63;;;13.30;99.90;;;;;;5050729;28;20045;-86
2022/05/23 00:46:56;;;;;;;5.45;3.30;;;13.20;99.90;;;;;;5016816;28;20379;-86
2022/05/23 00:49:26;;;;;;;5.38;3.60;;;13.30;99.90;;;;;;5049897;28;20045;-86
2022/05/23 00:51:52;;;;;;;5.82;3.35;;;13.20;99.90;;;;;;5017103;28;20127;-86
2022/05/23 00:54:18;;;;;;;4.53;3.20;;;13.10;99.90;;;;;;5000626;28;20482;-86
2022/05/23 00:56:45;;;;;;;5.47;3.40;;;13.00;99.90;;;;;;5016406;28;20053;-86
2022/05/23 00:59:14;;;;;;;9.60;3.92;;;12.90;99.90;;;;;;5017703;28;20115;-86
2022/05/23 01:01:39;;;;;;;3.90;3.47;;;12.80;99.90;;;;;;5036040;28;20093;-85
2022/05/23 01:04:05;;;;;;;6.05;3.33;;;12.80;99.90;;;;;;5019910;28;20080;-85
2022/05/23 01:06:31;;;;;;;6.15;3.75;;;12.70;99.90;;;;;;5036123;28;20058;-85
2022/05/23 01:08:57;;;;;;;6.22;3.50;;;12.80;99.90;;;;;;5051610;28;20103;-86
2022/05/23 01:11:23;;;;;;;6.30;3.33;;;12.80;99.90;;;;;;5050577;28;20115;-86
2022/05/23 01:13:49;;;;;;;5.05;3.72;;;12.70;99.90;;;;;;5033246;28;20135;-85
2022/05/23 01:16:14;;;;;;;4.32;3.88;;;12.70;99.90;;;;;;5017171;28;20470;-86
2022/05/23 01:18:40;;;;;;;5.15;3.72;;;12.70;99.90;;;;;;5049749;28;20111;-86
2022/05/23 01:21:07;;;;;;;4.60;3.75;;;12.60;99.90;;;;;;5034712;28;20045;-87
2022/05/23 01:23:39;;;;;;;4.80;3.75;;;12.60;99.90;;;;;;5017622;28;20120;-87
2022/05/23 01:26:04;;;;;;;4.60;3.65;;;12.60;99.90;;;;;;5049799;28;20091;-86
2022/05/23 01:28:34;;;;;;;5.18;3.50;;;12.60;99.90;;;;;;5049421;28;20088;-86
2022/05/23 01:31:00;;;;;;;6.70;4.03;;;12.60;99.90;;;;;;5016347;28;20480;-86
2022/05/23 01:33:26;;;;;;;8.90;4.55;;;12.60;99.90;;;;;;5000426;28;20052;-86
2022/05/23 01:35:51;;;;;;;5.18;4.53;;;12.60;99.90;;;;;;5016296;28;20136;-86
2022/05/23 01:38:17;;;;;;;8.05;4.30;;;12.60;99.90;;;;;;5048973;28;20401;-86
2022/05/23 01:40:43;;;;;;;5.35;4.10;;;12.50;99.90;;;;;;5049103;28;20057;-86
2022/05/23 01:43:08;;;;;;;4.18;3.70;;;12.40;99.90;;;;;;5016221;28;20045;-86
2022/05/23 01:45:36;;;;;;;9.48;3.90;;;12.40;99.90;;;;;;5026289;28;20056;-83
2022/05/23 01:48:02;;;;;;;5.72;4.03;;;12.30;99.90;;;;;;5049536;28;20029;-86
2022/05/23 01:50:28;;;;;;;7.72;4.78;;;12.30;99.90;;;;;;5030676;28;20057;-85
2022/05/23 01:52:54;;;;;;;8.10;4.57;;;12.30;99.90;;;;;;5036041;28;20049;-85
2022/05/23 01:55:20;;;;;;;8.30;4.15;;;12.40;99.90;;;;;;5033286;28;20050;-85
2022/05/23 01:57:45;;;;;;;5.22;4.30;;;12.30;99.90;;;;;;5032160;28;20053;-86
2022/05/23 02:02:58;;;;;;;7.18;4.68;;;12.30;99.90;;;;;;5018397;28;20061;-86
2022/05/23 02:05:27;;;;;;;7.20;4.80;;;12.30;99.90;;;;;;5032469;28;20387;-86
2022/05/23 02:07:53;;;;;;;5.15;4.65;;;12.30;99.90;;;;;;5032280;28;20048;-86
2022/05/23 02:10:19;;;;;;;5.55;4.57;;;12.30;99.90;;;;;;5032304;28;20050;-86
2022/05/23 02:12:45;;;;;;;6.35;5.00;;;12.30;99.90;;;;;;5015340;28;20045;-86
2022/05/23 02:15:11;;;;;;;6.03;4.38;;;12.40;99.90;;;;;;5015905;28;20095;-86
2022/05/23 02:17:36;;;;;;;8.07;4.70;;;12.40;99.90;;;;;;5015648;28;20053;-86
2022/05/23 02:20:02;;;;;;;7.03;4.95;;;12.40;99.90;;;;;;5031619;28;20049;-86
2022/05/23 02:22:28;;;;;;;7.80;5.10;;;12.30;99.90;;;;;;5031926;28;20053;-86
2022/05/23 02:24:54;;;;;;;5.88;4.95;;;12.30;99.90;;;;;;5031789;28;20414;-86
2022/05/23 02:27:19;;;;;;;8.77;5.18;;;12.20;99.90;;;;;;5032431;28;20511;-85
2022/05/23 02:29:45;;;;;;;7.05;5.13;;;12.20;99.90;;;;;;5032624;28;20474;-86
2022/05/23 02:32:11;;;;;;;7.65;4.70;;;12.20;99.90;;;;;;5028818;28;20048;-86
2022/05/23 02:34:36;;;;;;;5.75;5.18;;;12.20;99.90;;;;;;5051895;28;20053;-86
2022/05/23 02:37:02;;;;;;;7.30;4.78;;;12.20;99.90;;;;;;5051995;28;20099;-85
2022/05/23 02:39:28;;;;;;;6.25;5.00;;;12.20;99.90;;;;;;5035198;28;20114;-86
2022/05/23 02:41:54;;;;;;;7.25;5.30;;;12.20;99.90;;;;;;5051600;28;20485;-86
2022/05/23 02:44:19;;;;;;;7.88;4.90;;;12.30;99.90;;;;;;5052158;28;20059;-86
2022/05/23 02:46:45;;;;;;;8.35;5.20;;;12.30;99.90;;;;;;5051723;28;20119;-85
2022/05/23 02:49:11;;;;;;;9.50;5.57;;;12.50;99.90;;;;;;5035369;28;20083;-86
2022/05/23 02:51:37;;;;;;;9.07;6.03;;;12.60;99.90;;;;;;5051510;28;20049;-86
2022/05/23 02:54:03;;;;;;;8.93;5.70;;;12.70;99.90;;;;;;5051598;28;20045;-87
2022/05/23 02:56:28;;;;;;;8.68;5.93;;;12.60;99.90;;;;;;5051794;28;20059;-86
2022/05/23 02:58:54;;;;;;;8.30;6.00;;;12.50;99.90;;;;;;5051931;28;20385;-86
2022/05/23 03:01:20;;;;;;;6.93;6.10;;;12.30;99.90;;;;;;5050473;28;20165;-86
2022/05/23 03:03:46;;;;;;;10.80;6.13;;;12.20;99.90;;;;;;5051693;28;20056;-86
2022/05/23 03:06:11;;;;;;;11.65;6.85;;;12.20;99.90;;;;;;5051063;28;20072;-87
2022/05/23 03:08:37;;;;;;;9.70;6.28;;;12.30;99.90;;;;;;5034287;28;20393;-86
2022/05/23 03:11:05;;;;;;;6.97;6.15;;;12.30;99.90;;;;;;5033620;28;20049;-86
2022/05/23 03:13:30;;;;;;;8.52;6.05;;;12.40;99.90;;;;;;5050617;28;20053;-86
2022/05/23 03:15:56;;;;;;;10.20;6.10;;;12.40;99.90;;;;;;5034035;28;20045;-87
2022/05/23 03:18:23;;;;;;;9.25;6.72;;;12.40;99.90;;;;;;5033950;28;20051;-86
2022/05/23 03:20:55;;;;;;;7.57;6.13;;;12.40;99.90;;;;;;5017190;28;20060;-86
2022/05/23 03:28:49;;;;;;;8.07;6.55;;;12.30;99.90;;;;;;5036351;28;20079;-85
2022/05/23 03:31:14;;;;;;;10.43;6.32;;;12.30;99.90;;;;;;5051467;28;20492;-85
2022/05/23 03:33:40;;;;;;;8.02;6.50;;;12.30;99.90;;;;;;5050263;28;20048;-85
2022/05/23 03:36:08;;;;;;;11.18;6.07;;;12.30;99.90;;;;;;5050121;28;20223;-86
2022/05/23 03:38:35;;;;;;;7.85;6.45;;;12.30;99.90;;;;;;5033906;28;20455;-86
2022/05/23 03:41:06;;;;;;;8.00;6.45;;;12.30;99.90;;;;;;5066706;28;20139;-85
2022/05/23 03:43:31;;;;;;;8.40;6.18;;;12.30;99.90;;;;;;5050674;28;20052;-85
2022/05/23 03:46:04;;;;;;;8.38;6.00;;;12.30;99.90;;;;;;5043337;28;20061;-85
2022/05/23 03:48:30;;;;;;;9.30;6.05;;;12.30;99.90;;;;;;5013910;28;20054;-85
2022/05/23 03:50:55;;;;;;;7.40;5.80;;;12.30;99.90;;;;;;5029759;28;20050;-85
2022/05/23 03:53:21;;;;;;;9.27;6.22;;;12.30;99.90;;;;;;5030398;28;20371;-85
2022/05/23 03:55:49;;;;;;;7.03;5.53;;;12.40;99.90;;;;;;5013572;28;20052;-85
2022/05/23 03:58:15;;;;;;;7.82;5.72;;;12.40;99.90;;;;;;5013865;28;20096;-85
2022/05/23 04:00:43;;;;;;;9.85;5.95;;;12.60;99.90;;;;;;5013819;28;20100;-86
2022/05/23 04:03:09;;;;;;;6.50;5.68;;;12.50;99.90;;;;;;5013756;28;20140;-86
2022/05/23 04:05:35;;;;;;;6.72;5.97;;;12.60;99.90;;;;;;5034639;28;20101;-84
2022/05/23 04:08:00;;;;;;;8.13;6.00;;;12.60;99.90;;;;;;5054322;28;20021;-85
2022/05/23 04:10:26;;;;;;;7.82;5.78;;;12.60;99.90;;;;;;5051739;28;20064;-85
2022/05/23 04:12:52;;;;;;;7.18;6.03;;;12.60;99.90;;;;;;5026364;28;20100;-86
2022/05/23 04:15:17;;;;;;;9.60;7.18;;;12.60;99.90;;;;;;5035713;28;20057;-86
2022/05/23 04:17:43;;;;;;;9.18;6.30;;;12.70;99.90;;;;;;5019687;28;20041;-87
2022/05/23 04:20:10;;;;;;;8.52;6.20;;;12.70;99.90;;;;;;5018408;28;20551;-86
2022/05/23 04:22:36;;;;;;;8.10;5.78;;;12.60;99.90;;;;;;5035326;28;20057;-86
2022/05/23 04:25:03;;;;;;;8.35;5.88;;;12.70;99.90;;;;;;5020269;28;20123;-86
2022/05/23 04:27:29;;;;;;;9.73;6.20;;;12.80;99.90;;;;;;5040482;28;20057;-86
2022/05/23 04:29:54;;;;;;;7.55;5.65;;;12.80;99.90;;;;;;5023204;28;20165;-86
2022/05/23 04:35:13;;;;;;;7.88;6.35;;;12.90;99.90;;;;;;5053677;28;20053;-85
2022/05/23 04:37:41;;;;;;;8.07;6.30;;;12.90;99.90;;;;;;5040660;28;20046;-85
2022/05/23 04:40:07;;;;;;;8.88;6.70;;;13.00;99.90;;;;;;5037356;28;20060;-85
2022/05/23 04:42:33;;;;;;;6.45;5.80;;;13.20;99.90;;;;;;5037810;28;20375;-85
2022/05/23 04:44:58;;;;;;;6.72;6.10;;;13.20;99.90;;;;;;5053816;28;20136;-85
2022/05/23 04:50:09;;;;;;;7.38;6.20;;;13.80;99.90;;;;;;5070201;28;20057;-85
2022/05/23 04:52:34;;;;;;;6.88;6.18;;;14.10;99.90;;;;;;5053407;28;20098;-85
2022/05/23 04:55:00;;;;;;;9.27;6.05;;;14.30;99.90;;;;;;5053403;28;20041;-85
2022/05/23 04:57:25;;;;;;;7.00;5.53;;;14.40;99.90;;;;;;5053348;28;20044;-85
2022/05/23 04:59:54;;;;;;;6.47;5.00;;;14.70;99.90;;;;;;5069578;28;20493;-85
2022/05/23 05:02:20;;;;;;;7.53;5.15;;;15.20;99.90;;;;;;5053076;28;20095;-86
2022/05/23 05:04:45;;;;;;;7.40;4.72;;;15.80;99.90;;;;;;5053197;28;20370;-85
2022/05/23 05:07:11;;;;;;;6.18;4.75;;;16.30;99.90;;;;;;5053280;28;20362;-86
2022/05/23 05:09:37;;;;;;;5.85;4.43;;;17.10;99.90;;;;;;5053088;28;20553;-86
2022/05/23 05:12:04;;;;;;;7.80;4.88;;;17.50;99.90;;;;;;5052920;28;20076;-86
2022/05/23 05:14:30;;;;;;;5.95;4.53;;;17.40;99.90;;;;;;5036598;28;20061;-86
2022/05/23 05:16:56;;;;;;;6.53;4.93;;;17.00;99.90;;;;;;5054420;28;20089;-85
2022/05/23 05:19:21;;;;;;;5.82;4.50;;;17.00;99.90;;;;;;5052982;28;20538;-86
2022/05/23 05:21:47;;;;;;;6.82;5.15;;;17.00;99.90;;;;;;5036398;28;20081;-85
2022/05/23 05:24:13;;;;;;;9.25;5.50;;;17.00;99.90;;;;;;5051927;28;20084;-86
2022/05/23 05:26:38;;;;;;;6.80;5.20;;;16.50;99.90;;;;;;5052901;28;20044;-85
2022/05/23 05:29:04;;;;;;;7.13;5.15;;;16.30;99.90;;;;;;5052066;28;20542;-85
2022/05/23 05:31:52;;;;;;;9.00;4.95;;;16.20;99.90;;;;;;5052776;28;20049;-86
2022/05/23 05:34:39;;;;;;;6.78;5.03;;;16.50;99.90;;;;;;5052100;28;20506;-87
2022/05/23 05:37:07;;;;;;;9.23;5.05;;;17.00;99.90;;;;;;5058614;28;20052;-84
2022/05/23 05:39:33;;;;;;;5.95;5.00;;;17.80;99.90;;;;;;5020147;28;20106;-86
2022/05/23 05:42:15;;;;;;;6.43;5.10;;;18.60;99.90;;;;;;5047092;28;20057;-86
2022/05/23 05:44:43;;;;;;;5.38;4.53;;;19.20;99.90;;;;;;5046207;28;20393;-86
2022/05/23 05:47:10;;;;;;;8.38;4.95;;;19.40;99.90;;;;;;5033823;28;20413;-86
2022/05/23 05:49:37;;;;;;;7.97;4.47;;;19.60;99.90;;;;;;5028727;28;20168;-87
2022/05/23 05:52:03;;;;;;;7.88;5.10;;;19.40;99.90;;;;;;5017807;28;20054;-86
2022/05/23 05:54:30;;;;;;;6.22;4.63;;;18.80;99.90;;;;;;5031949;28;20053;-86
2022/05/23 05:56:56;;;;;;;9.13;5.22;;;18.70;99.90;;;;;;5044543;28;20084;-85
2022/05/23 05:59:22;;;;;;;7.43;4.82;;;18.40;99.90;;;;;;5022842;28;20139;-86
2022/05/23 06:01:47;;;;;;;7.35;5.13;;;17.90;99.90;;;;;;5032293;28;20167;-86
2022/05/23 06:04:13;;;;;;;6.85;5.40;;;17.50;99.90;;;;;;5031817;28;20103;-86
2022/05/23 06:12:14;;;;;;;7.82;5.20;;;18.10;99.90;;;;;;5031407;28;20800;-86
2022/05/23 06:14:41;;;;;;;10.70;5.60;;;18.60;99.90;;;;;;5015191;28;20060;-86
2022/05/23 06:17:07;;;;;;;9.00;5.55;;;19.40;99.90;;;;;;5031820;28;20053;-85
2022/05/23 06:19:40;;;;;;;6.85;4.82;;;20.30;99.90;;;;;;5015544;28;20060;-87
2022/05/23 06:22:06;;;;;;;8.23;6.10;;;20.70;99.90;;;;;;5015244;28;20103;-87
2022/05/23 06:24:32;;;;;;;8.35;4.88;;;20.30;99.90;;;;;;5014863;28;20292;-86
2022/05/23 06:26:58;;;;;;;10.02;4.88;;;19.70;99.90;;;;;;5015567;28;20429;-87
2022/05/23 06:29:24;;;;;;;9.20;4.72;;;20.60;99.90;;;;;;5053130;28;20048;-87
2022/05/23 06:31:49;;;;;;;7.65;5.45;;;20.60;99.90;;;;;;5034069;28;20097;-86
2022/05/23 06:34:15;;;;;;;8.88;5.68;;;19.90;99.90;;;;;;5037712;28;20109;-87
2022/05/23 06:36:41;;;;;;;10.57;5.15;;;20.10;99.90;;;;;;5032051;28;20245;-87
2022/05/23 06:39:06;;;;;;;7.13;4.80;;;19.60;99.90;;;;;;5032077;28;20053;-87
2022/05/23 06:41:32;;;;;;;7.60;5.30;;;19.20;99.90;;;;;;5031892;28;20056;-87
2022/05/23 06:43:58;;;;;;;8.50;5.60;;;19.70;99.90;;;;;;5019370;28;20059;-88
2022/05/23 06:46:23;;;;;;;7.03;5.63;;;19.70;99.90;;;;;;5038744;28;20119;-87
2022/05/23 06:48:49;;;;;;;9.63;5.80;;;19.80;99.90;;;;;;5032003;28;20045;-88
2022/05/23 06:51:15;;;;;;;11.32;5.75;;;20.00;99.90;;;;;;5014951;28;20505;-87
2022/05/23 06:53:40;;;;;;;6.70;5.00;;;19.80;99.90;;;;;;5015232;28;20045;-87
2022/05/23 06:56:06;;;;;;;7.55;5.25;;;20.20;99.90;;;;;;5031312;28;20049;-88
2022/05/23 06:58:32;;;;;;;6.32;5.07;;;20.40;99.90;;;;;;5031759;28;20091;-87
2022/05/23 07:00:57;;;;;;;9.80;5.60;;;20.70;99.90;;;;;;5014743;28;20053;-88
2022/05/23 07:03:23;;;;;;;6.43;5.07;;;20.90;99.90;;;;;;5031018;28;20049;-87
2022/05/23 07:14:01;;;;;;;7.82;5.50;;;21.40;99.90;;;;;;5067810;28;20118;-90
2022/05/23 07:16:28;;;;;;;11.43;6.43;;;21.80;99.90;;;;;;5034039;28;20060;-88
2022/05/23 07:18:54;;;;;;;7.55;5.32;;;22.00;99.90;;;;;;5050663;28;20057;-90
2022/05/23 07:21:20;;;;;;;8.52;6.20;;;22.60;99.90;;;;;;5031016;28;20559;-92
2022/05/23 07:23:46;;;;;;;8.73;5.72;;;23.10;99.90;;;;;;5030201;28;20045;-91
2022/05/23 07:26:16;;;;;;;8.50;6.18;;;23.20;99.90;;;;;;5049588;28;20567;-93
2022/05/23 07:28:43;;;;;;;10.57;5.57;;;23.40;99.90;;;;;;5017147;28;20462;-92
2022/05/23 07:31:09;;;;;;;7.53;5.35;;;23.80;99.90;;;;;;5019579;28;20057;-93
2022/05/23 07:33:35;;;;;;;8.00;5.53;;;23.60;99.90;;;;;;5025746;28;20431;-95
2022/05/23 07:36:01;;;;;;;7.70;5.30;;;23.60;99.90;;;;;;5024073;28;20045;-92
2022/05/23 07:38:28;;;;;;;9.30;6.13;;;23.60;99.90;;;;;;5027248;28;20053;-94
2022/05/23 07:40:54;;;;;;;6.72;5.10;;;23.50;99.90;;;;;;5029641;28;20061;-94
2022/05/23 07:43:19;;;;;;;8.88;5.45;;;23.70;99.90;;;;;;5030316;28;20056;-93
2022/05/23 07:45:45;;;;;;;8.50;5.47;;;23.30;99.90;;;;;;5016551;28;20045;-88
2022/05/23 07:48:11;;;;;;;7.47;5.40;;;23.10;99.90;;;;;;5030003;28;20049;-90
2022/05/23 07:50:37;;;;;;;8.48;5.40;;;23.10;99.90;;;;;;5025111;28;20152;-89
2022/05/23 08:01:17;;;;;;;8.40;5.68;;;23.70;99.90;;;;;;5063135;28;20592;-96
2022/05/23 08:03:43;;;;;;;8.95;5.50;;;23.70;99.90;;;;;;5047697;28;20104;-96
2022/05/23 08:06:09;;;;;;;7.65;5.20;;;24.10;99.90;;;;;;5021219;28;20045;-96
2022/05/23 08:08:35;;;;;;;8.48;5.65;;;23.90;99.90;;;;;;5020704;28;20037;-94
2022/05/23 08:11:01;;;;;;;7.75;4.93;;;24.60;99.90;;;;;;5041217;28;20020;-91
2022/05/23 08:13:26;;;;;;;11.73;5.35;;;25.00;99.90;;;;;;5032426;28;20045;-96
2022/05/23 08:15:52;;;;;;;6.53;4.70;;;25.10;99.90;;;;;;5053960;28;20056;-92
2022/05/23 08:18:18;;;;;;;5.47;4.68;;;25.20;99.90;;;;;;5038914;28;20049;-96
2022/05/23 08:20:44;;;;;;;8.43;5.15;;;26.20;99.90;;;;;;5041956;28;20136;-91
2022/05/23 08:23:09;;;;;;;8.00;5.25;;;25.60;99.90;;;;;;4998017;28;20140;-93
2022/05/23 08:25:35;;;;;;;9.35;5.15;;;25.60;99.90;;;;;;5032224;28;20053;-92
2022/05/23 08:28:00;;;;;;;9.13;5.22;;;26.40;99.90;;;;;;5030737;28;20408;-91
2022/05/23 08:30:27;;;;;;;8.27;5.20;;;26.80;99.90;;;;;;5049863;28;20041;-93
2022/05/23 08:32:53;;;;;;;8.82;4.82;;;27.50;99.90;;;;;;5019494;28;20053;-91
2022/05/23 08:35:19;;;;;;;9.18;5.22;;;27.40;99.90;;;;;;5048748;28;20049;-88
2022/05/23 08:37:44;;;;;;;6.97;4.40;;;27.20;99.90;;;;;;5016068;28;20104;-89
2022/05/23 08:40:10;;;;;;;7.45;5.00;;;26.60;99.90;;;;;;5026610;28;20064;-91
2022/05/23 08:42:56;;;;;;;6.13;5.10;;;26.40;99.90;;;;;;5031193;28;20056;-92
2022/05/23 08:45:34;;;;;;;6.30;4.40;;;26.10;99.90;;;;;;5017339;28;20052;-89
2022/05/23 08:48:02;;;;;;;6.53;4.20;;;25.80;99.90;;;;;;5018513;28;20373;-89
2022/05/23 08:50:40;;;;;;;6.63;4.88;;;26.20;99.90;;;;;;5068633;28;20025;-86
2022/05/23 08:53:10;;;;;;;9.55;4.90;;;26.20;99.90;;;;;;5052691;28;20087;-89
2022/05/23 08:55:53;;;;;;;6.22;3.92;;;26.30;99.90;;;;;;5039490;28;20114;-88
2022/05/23 08:58:26;;;;;;;5.55;4.47;;;26.70;99.90;;;;;;5036297;28;20471;-91
2022/05/23 09:01:11;;;;;;;9.18;5.10;;;26.30;99.90;;;;;;5040140;28;20082;-90
2022/05/23 09:03:50;;;;;;;9.88;5.65;;;26.60;99.90;;;;;;5035691;28;20064;-89
2022/05/23 09:06:54;;;;;;;6.53;5.10;;;26.80;99.90;;;;;;5027465;28;20049;-92
2022/05/23 09:09:20;;;;;;;;;;;26.90;99.90;;;;;;4997604;28;20054;-90
2022/05/23 09:11:48;;;;;;;7.80;4.53;;;27.30;99.90;;;;;;5013731;28;19921;-88
2022/05/23 09:14:16;;;;;;;7.88;4.65;;;27.20;99.90;;;;;;5035457;28;20045;-87
2022/05/23 09:16:44;;;;;;;5.55;4.32;;;27.20;99.90;;;;;;5032127;28;20049;-90
2022/05/23 09:19:37;;;;;;;6.78;4.50;;;27.00;99.90;;;;;;5057721;28;20324;-85
2022/05/23 09:22:18;;;;;;;5.63;4.18;;;27.30;99.90;;;;;;5043888;28;20049;-91
2022/05/23 09:24:54;;;;;;;7.93;4.13;;;27.60;99.90;;;;;;5054775;28;20037;-92
2022/05/23 09:27:40;;;;;;;5.63;3.60;;;27.20;99.90;;;;;;5039163;28;20041;-91
2022/05/23 09:30:11;;;;;;;6.10;3.75;;;27.40;99.90;;;;;;5042961;28;20508;-90
2022/05/23 09:33:02;;;;;;;7.97;4.22;;;27.10;99.90;;;;;;5027023;28;20069;-94
2022/05/23 09:35:52;;;;;;;5.68;4.20;;;27.50;99.90;;;;;;5057355;28;20457;-93
2022/05/23 09:38:25;;;;;;;6.55;4.68;;;27.10;99.90;;;;;;5056325;28;20060;-93
2022/05/23 09:40:51;;;;;;;;;;;26.80;99.90;;;;;;5042077;28;20057;-91
2022/05/23 09:49:18;;;;;;;5.40;3.22;;;26.60;99.90;;;;;;5037806;28;20408;-92
2022/05/23 09:51:51;;;;;;;4.13;2.90;;;26.50;99.90;;;;;;5025005;28;20076;-92
2022/05/23 09:54:40;;;;;;;6.40;2.85;;;27.00;99.90;;;;;;5040045;28;20056;-91
2022/05/23 09:57:40;;;;;;;4.30;2.78;;;27.10;99.90;;;;;;5039863;28;20056;-90
2022/05/23 10:00:10;;;;;;;5.28;2.72;;;27.40;99.90;;;;;;5044656;28;20063;-95
2022/05/23 10:02:47;;;;;;;4.00;2.45;;;27.80;99.20;;;;;;5038365;28;20082;-94
2022/05/23 10:05:25;;;;;;;5.85;2.50;;;28.00;99.00;;;;;;5022958;28;20048;-93
2022/05/23 10:07:54;;;;;;;3.75;2.30;;;27.50;98.30;;;;;;5022077;28;20052;-91
2022/05/23 10:10:31;;;;;;;8.30;2.58;;;26.90;99.30;;;;;;5020292;28;20107;-87
2022/05/23 10:13:18;;;;;;;4.57;2.80;;;26.90;99.60;;;;;;5035555;28;20375;-87
2022/05/23 10:15:50;;;;;;;3.15;2.80;;;26.40;99.90;;;;;;5053906;28;20144;-91
2022/05/23 10:18:44;;;;;;;5.45;2.85;;;26.00;99.90;;;;;;5038805;28;20045;-90
2022/05/23 10:21:40;;;;;;;5.53;2.70;;;25.80;99.90;;;;;;5045585;28;20061;-91
2022/05/23 10:24:11;;;;;;;4.57;2.53;;;25.80;99.90;;;;;;5015861;28;20128;-92
2022/05/23 10:26:48;;;;;;;5.10;2.90;;;25.50;99.90;;;;;;5015436;28;20053;-91
2022/05/23 10:29:23;;;;;;;4.22;3.17;;;25.70;99.90;;;;;;5034697;28;20045;-90
2022/05/23 10:31:53;;;;;;;5.15;2.90;;;25.90;99.90;;;;;;5061229;28;20602;-90
2022/05/23 10:34:38;;;;;;;5.57;2.88;;;25.80;99.90;;;;;;5026886;28;20116;-90
2022/05/23 10:37:09;;;;;;;5.57;3.38;;;25.70;99.90;;;;;;5032213;28;20569;-88
2022/05/23 10:42:46;;;;;;;6.78;3.00;;;26.00;99.90;;;;;;5018138;28;20060;-88
2022/05/23 10:45:54;;;;;;;5.45;3.45;;;25.70;99.90;;;;;;5015923;28;20076;-88
2022/05/23 10:48:46;;;;;;;6.22;3.10;;;25.90;99.90;;;;;;5024910;28;20080;-90
2022/05/23 10:51:24;;;;;;;6.97;2.92;;;26.00;99.90;;;;;;5044503;28;20130;-92
2022/05/23 10:53:58;;;;;;;6.47;3.30;;;26.40;99.90;;;;;;5045391;28;20045;-94
2022/05/23 10:56:33;;;;;;;5.60;3.17;;;27.00;99.90;;;;;;5024929;28;20058;-90
2022/05/23 10:59:26;;;;;;;3.60;3.15;;;27.40;99.90;;;;;;5015253;28;20086;-88
2022/05/23 11:02:18;;;;;;;4.30;2.63;;;27.70;99.90;;;;;;5017001;28;20053;-91
2022/05/23 11:04:53;;;;;;;6.20;3.22;;;27.60;99.60;;;;;;5017850;28;20049;-91
2022/05/23 11:07:21;;;;;;;4.15;3.17;;;27.40;99.90;;;;;;5035997;28;20053;-92
2022/05/23 11:09:56;;;;;;;5.18;2.83;;;27.30;99.90;;;;;;5048896;28;20053;-90
2022/05/23 11:12:57;;;;;;;6.32;3.30;;;27.60;99.90;;;;;;5091235;28;20056;-86
2022/05/23 11:15:39;;;;;;;4.75;3.10;;;26.70;99.90;;;;;;5053248;28;20045;-89
2022/05/23 11:18:11;;;;;;;6.07;3.13;;;26.60;99.90;;;;;;5054986;28;20077;-89
2022/05/23 11:20:38;;;;;;;3.58;2.70;;;26.90;99.90;;;;;;5035311;28;20049;-92
2022/05/23 11:23:41;;;;;;;3.53;2.00;;;27.10;99.90;;;;;;5032608;28;20117;-89
2022/05/23 11:26:09;;;;;;;3.13;1.70;;;27.20;99.90;;;;;;5073654;28;20143;-91
2022/05/23 11:34:28;;;;;;;3.95;2.45;;;27.00;98.80;;;;;;5026718;28;20053;-90
2022/05/23 11:39:42;;;;;;;;;;;27.00;98.70;;;;;;5018854;28;20061;-89
2022/05/23 11:42:15;;;;;;;3.97;2.38;;;26.30;99.30;;;;;;5033273;28;20027;-89
2022/05/23 11:44:45;;;;;;;3.10;2.22;;;26.40;99.50;;;;;;5016142;28;20140;-88
2022/05/23 11:47:23;;;;;;;4.78;2.47;;;26.70;99.60;;;;;;5041148;28;20088;-89
2022/05/23 11:49:59;;;;;;;3.15;2.50;;;26.60;99.60;;;;;;5015530;28;20121;-92
2022/05/23 11:52:40;;;;;;;4.97;2.25;;;26.70;99.80;;;;;;5025780;28;20482;-95
2022/05/23 11:55:44;;;;;;;3.28;2.17;;;26.70;99.90;;;;;;5021861;28;20053;-93
2022/05/23 11:58:17;;;;;;;3.55;2.47;;;27.00;98.60;;;;;;5048954;28;20437;-89
2022/05/23 12:00:42;;;;;;;4.10;2.63;;;26.90;99.40;;;;;;5035005;28;20473;-92
2022/05/23 12:03:14;;;;;;;3.88;2.45;;;27.10;98.80;;;;;;5018400;28;20075;-92
2022/05/23 12:05:41;;;;;;;6.20;2.25;;;26.90;99.10;;;;;;5034322;28;20045;-92
2022/05/23 12:08:26;;;;;;;4.88;2.85;;;26.50;99.90;;;;;;5017494;28;20292;-92
2022/05/23 12:10:58;;;;;;;4.00;2.40;;;26.80;99.90;;;;;;5017358;28;20455;-91
2022/05/23 12:13:30;;;;;;;5.25;2.90;;;26.90;99.90;;;;;;5034726;28;20057;-93
2022/05/23 12:15:58;;;;;;;6.78;3.35;;;27.10;99.20;;;;;;5067112;28;20396;-92
2022/05/23 12:18:23;;;;;;;6.13;2.47;;;27.20;99.20;;;;;;5018321;28;20049;-91
2022/05/23 12:20:51;;;;;;;6.38;3.30;;;27.20;99.90;;;;;;5050027;28;20049;-90
2022/05/23 12:23:30;;;;;;;7.05;3.20;;;27.20;99.50;;;;;;5017585;28;20135;-90
2022/05/23 12:26:10;;;;;;;4.38;2.80;;;26.80;99.70;;;;;;5035300;28;20041;-93
2022/05/23 12:28:53;;;;;;;4.65;2.92;;;26.90;99.90;;;;;;5050425;28;20109;-92
2022/05/23 12:31:29;;;;;;;6.63;3.22;;;26.60;99.90;;;;;;5017191;28;20053;-89
2022/05/23 12:34:17;;;;;;;4.03;2.80;;;26.90;99.90;;;;;;5018045;28;20064;-90
2022/05/23 12:36:50;;;;;;;2.70;2.30;;;27.10;99.90;;;;;;5053994;28;20128;-91
2022/05/23 12:39:48;;;;;;;5.85;2.00;;;26.90;99.70;;;;;;5053828;28;20491;-89
2022/05/23 12:42:53;;;;;;;4.00;2.17;;;26.80;99.30;;;;;;5049253;28;20134;-89
2022/05/23 12:45:33;;;;;;;;;;;26.50;99.60;;;;;;4980606;28;20073;-89
2022/05/23 12:48:08;;;;;;;3.63;2.65;;;26.40;99.90;;;;;;5067475;28;19933;-92
2022/05/23 12:50:53;;;;;;;4.30;2.78;;;26.40;99.50;;;;;;5071800;28;20045;-93
2022/05/23 12:53:37;;;;;;;5.32;2.70;;;26.10;99.50;;;;;;5070641;28;20049;-90
2022/05/23 12:56:19;;;;;;;5.57;2.70;;;26.20;99.90;;;;;;5037597;28;20049;-88
2022/05/23 12:59:00;;;;;;;5.47;2.60;;;26.30;99.90;;;;;;5016409;28;20385;-92
2022/05/23 13:01:28;;;;;;;4.45;2.40;;;26.00;99.90;;;;;;5040491;28;20045;-93
2022/05/23 13:04:06;;;;;;;3.88;2.33;;;26.10;99.90;;;;;;5046750;28;20081;-88
2022/05/23 13:06:44;;;;;;;3.35;2.50;;;26.10;99.90;;;;;;5033181;28;20055;-95
2022/05/23 13:09:14;;;;;;;6.22;2.60;;;26.20;99.90;;;;;;5022511;28;20084;-89
2022/05/23 13:11:41;;;;;;;5.88;2.63;;;26.50;99.90;;;;;;5018780;28;20044;-93
2022/05/23 13:14:07;;;;;;;4.47;2.50;;;26.40;99.90;;;;;;5034289;28;20044;-96
2022/05/23 13:16:36;;;;;;;4.25;2.60;;;26.70;99.90;;;;;;5035511;28;20092;-93
2022/05/23 13:22:05;;;;;;;5.00;2.60;;;26.30;99.90;;;;;;5038235;28;20052;-88
2022/05/23 13:24:49;;;;;;;4.85;2.85;;;26.40;99.90;;;;;;5022320;28;20052;-90
2022/05/23 13:27:23;;;;;;;4.68;2.47;;;26.30;99.90;;;;;;5018305;28;20049;-90
2022/05/23 13:29:57;;;;;;;5.20;2.80;;;26.20;99.90;;;;;;5032167;28;20054;-90
2022/05/23 13:32:23;;;;;;;4.13;2.78;;;26.10;99.90;;;;;;5021216;28;20441;-87
2022/05/23 13:34:49;;;;;;;4.80;2.50;;;26.30;99.90;;;;;;5055477;28;20084;-87
2022/05/23 13:37:25;;;;;;;4.38;2.95;;;26.20;99.90;;;;;;5048718;28;20045;-91
2022/05/23 13:39:51;;;;;;;5.47;2.90;;;26.40;99.90;;;;;;5071309;28;20052;-91
2022/05/23 13:42:24;;;;;;;5.03;3.08;;;26.10;99.90;;;;;;5033086;28;20054;-90
2022/05/23 13:44:50;;;;;;;6.00;3.30;;;26.10;99.90;;;;;;5021067;28;20060;-90
2022/05/23 13:47:22;;;;;;;7.80;4.05;;;25.80;99.90;;;;;;5039666;28;20144;-90
2022/05/23 13:49:57;;;;;;;8.00;3.90;;;26.20;99.90;;;;;;5014143;28;20081;-89
2022/05/23 13:52:31;;;;;;;2.95;2.58;;;26.10;99.90;;;;;;5019216;28;20057;-89
2022/05/23 13:55:06;;;;;;;6.25;3.28;;;26.00;99.90;;;;;;5033516;28;20398;-91
2022/05/23 13:57:34;;;;;;;5.90;3.20;;;25.90;99.90;;;;;;5033741;28;20397;-91
2022/05/23 14:00:05;;;;;;;5.40;3.05;;;25.90;99.90;;;;;;5019172;28;20158;-90
2022/05/23 14:02:39;;;;;;;6.72;3.20;;;25.60;99.90;;;;;;5019421;28;20076;-89
2022/05/23 14:05:04;;;;;;;5.63;3.20;;;25.60;99.90;;;;;;5049468;28;20060;-90
2022/05/23 14:07:30;;;;;;;7.35;3.10;;;25.50;99.90;;;;;;5034029;28;20041;-91